Time;durP1;ratioP1;P1;durP2;ratioP2;P2;SDS_P1;SDS_P2;PMS_P1;PMS_P2;Temp;Humidity;BMP_temperature;BMP_pressure;BME280_temperature;BME280_humidity;BME280_pressure;Samples;Min_cycle;Max_cycle;Signal;HPM_P1;HPM_P2
2021/06/23 00:01:00;;;;;;;;;;;;;;;;;;5054191;28;19913;-66
2021/06/23 00:03:26;;;;;;;;;;;;;;;;;;5055022;28;19913;-66
2021/06/23 00:05:53;;;;;;;;;;;;;;;;;;5055261;28;19913;-65
2021/06/23 00:08:19;;;;;;;;;;;;;;;;;;5055820;28;19913;-66
2021/06/23 00:10:47;;;;;;;;;;;;;;;;;;5053139;28;20245;-65
2021/06/23 00:13:13;;;;;;;;;;;;;;;;;;5053364;28;19921;-64
2021/06/23 00:15:39;;;;;;;;;;;;;;;;;;5053489;28;19912;-64
2021/06/23 00:18:05;;;;;;;;;;;;;;;;;;5053525;28;19966;-64
2021/06/23 00:20:44;;;;;;;;;;;;;;;;;;5053020;28;20319;-65
2021/06/23 00:23:10;;;;;;;;;;;;;;;;;;5053405;28;19917;-65
2021/06/23 00:25:36;;;;;;;;;;;;;;;;;;5046641;28;19966;-64
2021/06/23 00:28:02;;;;;;;;;;;;;;;;;;5053333;28;19966;-63
2021/06/23 00:30:28;;;;;;;;;;;;;;;;;;5053018;28;20280;-63
2021/06/23 00:32:55;;;;;;;;;;;;;;;;;;5053015;28;19921;-64
2021/06/23 00:35:21;;;;;;;;;;;;;;;;;;5053196;28;19913;-63
2021/06/23 00:37:47;;;;;;;;;;;;;;;;;;5052997;28;19920;-63
2021/06/23 00:40:13;;;;;;;;;;;;;;;;;;5035049;28;19913;-63
2021/06/23 00:42:40;;;;;;;;;;;;;;;;;;5053052;28;19913;-64
2021/06/23 00:45:06;;;;;;;;;;;;;;;;;;5052949;28;19913;-63
2021/06/23 00:47:32;;;;;;;;;;;;;;;;;;5052770;28;19923;-63
2021/06/23 00:49:59;;;;;;;;;;;;;;;;;;5052754;28;19916;-63
2021/06/23 00:52:25;;;;;;;;;;;;;;;;;;5052861;28;19920;-63
2021/06/23 00:54:57;;;;;;;;;;;;;;;;;;5052827;28;19919;-64
2021/06/23 00:57:23;;;;;;;;;;;;;;;;;;5052469;28;20349;-64
2021/06/23 00:59:50;;;;;;;;;;;;;;;;;;5052626;28;20003;-63
2021/06/23 01:02:17;;;;;;;;;;;;;;;;;;5052208;28;19917;-63
2021/06/23 01:04:43;;;;;;;;;;;;;;;;;;5052402;28;19979;-64
2021/06/23 01:07:09;;;;;;;;;;;;;;;;;;5052667;28;19913;-63
2021/06/23 01:09:36;;;;;;;;;;;;;;;;;;5052325;28;20359;-63
2021/06/23 01:12:02;;;;;;;;;;;;;;;;;;5052386;28;19928;-63
2021/06/23 01:14:32;;;;;;;;;;;;;;;;;;5052157;28;19921;-63
2021/06/23 01:16:58;;;;;;;;;;;;;;;;;;5052574;28;19917;-63
2021/06/23 01:19:25;;;;;;;;;;;;;;;;;;5052428;28;19912;-63
2021/06/23 01:21:51;;;;;;;;;;;;;;;;;;5052228;28;20368;-63
2021/06/23 01:24:17;;;;;;;;;;;;;;;;;;5052448;28;19913;-63
2021/06/23 01:26:44;;;;;;;;;;;;;;;;;;5052461;28;20011;-63
2021/06/23 01:29:10;;;;;;;;;;;;;;;;;;5052393;28;19920;-63
2021/06/23 01:31:36;;;;;;;;;;;;;;;;;;5052247;28;19921;-63
2021/06/23 01:34:02;;;;;;;;;;;;;;;;;;5052155;28;19912;-64
2021/06/23 01:36:30;;;;;;;;;;;;;;;;;;5052385;28;19912;-64
2021/06/23 01:38:56;;;;;;;;;;;;;;;;;;5052227;28;19919;-63
2021/06/23 01:41:22;;;;;;;;;;;;;;;;;;5052166;28;19982;-63
2021/06/23 01:43:49;;;;;;;;;;;;;;;;;;5052253;28;19971;-63
2021/06/23 01:46:15;;;;;;;;;;;;;;;;;;5052253;28;19940;-63
2021/06/23 01:48:41;;;;;;;;;;;;;;;;;;5052228;28;19917;-64
2021/06/23 01:51:08;;;;;;;;;;;;;;;;;;5052107;28;19920;-63
2021/06/23 01:53:34;;;;;;;;;;;;;;;;;;5051868;28;19991;-62
2021/06/23 01:56:00;;;;;;;;;;;;;;;;;;5052043;28;20376;-63
2021/06/23 01:58:27;;;;;;;;;;;;;;;;;;5052102;28;19920;-62
2021/06/23 02:00:53;;;;;;;;;;;;;;;;;;5052182;28;19924;-62
2021/06/23 02:03:19;;;;;;;;;;;;;;;;;;5052114;28;19913;-61
2021/06/23 02:05:46;;;;;;;;;;;;;;;;;;5052152;28;19963;-61
2021/06/23 02:08:12;;;;;;;;;;;;;;;;;;5052188;28;19912;-61
2021/06/23 02:10:38;;;;;;;;;;;;;;;;;;5051930;28;19913;-61
2021/06/23 02:13:04;;;;;;;;;;;;;;;;;;5051784;28;20011;-60
2021/06/23 02:15:31;;;;;;;;;;;;;;;;;;5055869;28;19967;-62
2021/06/23 02:17:57;;;;;;;;;;;;;;;;;;5055778;28;19917;-62
2021/06/23 02:20:23;;;;;;;;;;;;;;;;;;5055203;28;19920;-62
2021/06/23 02:22:49;;;;;;;;;;;;;;;;;;5052903;28;19921;-62
2021/06/23 02:25:16;;;;;;;;;;;;;;;;;;5054167;28;19913;-63
2021/06/23 02:27:42;;;;;;;;;;;;;;;;;;5054427;28;20003;-63
2021/06/23 02:30:08;;;;;;;;;;;;;;;;;;5053825;28;19921;-64
2021/06/23 02:32:34;;;;;;;;;;;;;;;;;;5054169;28;20281;-64
2021/06/23 02:35:00;;;;;;;;;;;;;;;;;;5054469;28;20331;-64
2021/06/23 02:37:27;;;;;;;;;;;;;;;;;;5054768;28;19966;-64
2021/06/23 02:39:53;;;;;;;;;;;;;;;;;;5054311;28;20391;-64
2021/06/23 02:42:19;;;;;;;;;;;;;;;;;;5054437;28;20039;-64
2021/06/23 02:44:45;;;;;;;;;;;;;;;;;;5054768;28;20202;-63
2021/06/23 02:47:16;;;;;;;;;;;;;;;;;;5055031;28;20403;-63
2021/06/23 02:49:42;;;;;;;;;;;;;;;;;;5046772;28;19913;-63
2021/06/23 02:52:08;;;;;;;;;;;;;;;;;;5055266;28;20008;-64
2021/06/23 02:54:35;;;;;;;;;;;;;;;;;;5054788;28;20341;-63
2021/06/23 02:57:01;;;;;;;;;;;;;;;;;;5055025;28;19913;-64
2021/06/23 02:59:27;;;;;;;;;;;;;;;;;;5054992;28;19919;-63
2021/06/23 03:01:53;;;;;;;;;;;;;;;;;;5054145;28;19940;-63
2021/06/23 03:04:20;;;;;;;;;;;;;;;;;;5053774;28;19919;-64
2021/06/23 03:06:46;;;;;;;;;;;;;;;;;;5053734;28;19919;-65
2021/06/23 03:09:13;;;;;;;;;;;;;;;;;;5053136;28;19927;-65
2021/06/23 03:11:39;;;;;;;;;;;;;;;;;;5052837;28;20352;-65
2021/06/23 03:14:05;;;;;;;;;;;;;;;;;;5052861;28;19921;-64
2021/06/23 03:16:31;;;;;;;;;;;;;;;;;;5053523;28;19921;-65
2021/06/23 03:18:58;;;;;;;;;;;;;;;;;;5053314;28;19912;-65
2021/06/23 03:21:25;;;;;;;;;;;;;;;;;;5053263;28;19952;-64
2021/06/23 03:23:51;;;;;;;;;;;;;;;;;;5052857;28;19916;-65
2021/06/23 03:26:17;;;;;;;;;;;;;;;;;;5053165;28;19966;-64
2021/06/23 03:28:44;;;;;;;;;;;;;;;;;;5052871;28;19920;-65
2021/06/23 03:31:10;;;;;;;;;;;;;;;;;;5052960;28;19912;-64
2021/06/23 03:33:37;;;;;;;;;;;;;;;;;;5053107;28;19919;-65
2021/06/23 03:36:04;;;;;;;;;;;;;;;;;;5052877;28;19909;-65
2021/06/23 03:38:30;;;;;;;;;;;;;;;;;;5052304;28;19917;-65
2021/06/23 03:40:56;;;;;;;;;;;;;;;;;;5053357;28;19913;-65
2021/06/23 03:43:22;;;;;;;;;;;;;;;;;;5053040;28;19916;-63
2021/06/23 03:45:49;;;;;;;;;;;;;;;;;;5052868;28;19966;-65
2021/06/23 03:48:15;;;;;;;;;;;;;;;;;;5053622;28;19913;-64
2021/06/23 03:50:43;;;;;;;;;;;;;;;;;;5053339;28;19917;-65
2021/06/23 03:53:10;;;;;;;;;;;;;;;;;;5048701;28;20442;-65
2021/06/23 03:55:37;;;;;;;;;;;;;;;;;;5051901;28;20003;-64
2021/06/23 03:58:03;;;;;;;;;;;;;;;;;;5053514;28;19920;-63
2021/06/23 04:00:29;;;;;;;;;;;;;;;;;;5052963;28;19928;-63
2021/06/23 04:02:55;;;;;;;;;;;;;;;;;;5052511;28;19912;-63
2021/06/23 04:05:21;;;;;;;;;;;;;;;;;;5052875;28;19935;-62
2021/06/23 04:07:48;;;;;;;;;;;;;;;;;;5052656;28;20014;-63
2021/06/23 04:10:14;;;;;;;;;;;;;;;;;;5051399;28;19908;-63
2021/06/23 04:12:40;;;;;;;;;;;;;;;;;;5053121;28;19920;-63
2021/06/23 04:15:06;;;;;;;;;;;;;;;;;;5052554;28;19944;-63
2021/06/23 04:17:33;;;;;;;;;;;;;;;;;;5052013;28;19921;-62
2021/06/23 04:19:59;;;;;;;;;;;;;;;;;;5052154;28;20010;-63
2021/06/23 04:22:25;;;;;;;;;;;;;;;;;;5044198;28;19984;-64
2021/06/23 04:24:53;;;;;;;;;;;;;;;;;;5052497;28;20348;-63
2021/06/23 04:27:19;;;;;;;;;;;;;;;;;;5049457;28;19936;-63
2021/06/23 04:29:45;;;;;;;;;;;;;;;;;;5053714;28;19916;-63
2021/06/23 04:32:11;;;;;;;;;;;;;;;;;;5052733;28;19925;-63
2021/06/23 04:34:38;;;;;;;;;;;;;;;;;;5052860;28;19909;-64
2021/06/23 04:37:04;;;;;;;;;;;;;;;;;;5046857;28;20353;-64
2021/06/23 04:39:30;;;;;;;;;;;;;;;;;;5052888;28;19952;-65
2021/06/23 04:41:56;;;;;;;;;;;;;;;;;;5053022;28;19917;-64
2021/06/23 04:44:22;;;;;;;;;;;;;;;;;;5049564;28;20420;-63
2021/06/23 04:46:49;;;;;;;;;;;;;;;;;;5053118;28;20419;-64
2021/06/23 04:49:15;;;;;;;;;;;;;;;;;;5052818;28;19970;-64
2021/06/23 04:51:41;;;;;;;;;;;;;;;;;;5052107;28;20253;-64
2021/06/23 04:54:07;;;;;;;;;;;;;;;;;;5048315;28;20324;-64
2021/06/23 04:56:34;;;;;;;;;;;;;;;;;;5048387;28;20594;-64
2021/06/23 04:59:00;;;;;;;;;;;;;;;;;;5051878;28;20280;-64
2021/06/23 05:01:26;;;;;;;;;;;;;;;;;;5048491;28;20062;-64
2021/06/23 05:03:52;;;;;;;;;;;;;;;;;;5052475;28;19909;-63
2021/06/23 05:06:18;;;;;;;;;;;;;;;;;;5048610;28;19912;-64
2021/06/23 05:08:45;;;;;;;;;;;;;;;;;;5052213;28;20295;-64
2021/06/23 05:11:11;;;;;;;;;;;;;;;;;;5051977;28;20357;-64
2021/06/23 05:13:37;;;;;;;;;;;;;;;;;;5052048;28;19921;-65
2021/06/23 05:16:04;;;;;;;;;;;;;;;;;;5052169;28;19913;-65
2021/06/23 05:18:30;;;;;;;;;;;;;;;;;;5051017;28;20015;-64
2021/06/23 05:20:57;;;;;;;;;;;;;;;;;;5051737;28;20299;-64
2021/06/23 05:23:23;;;;;;;;;;;;;;;;;;5051732;28;20399;-65
2021/06/23 05:25:49;;;;;;;;;;;;;;;;;;5051554;28;20000;-64
2021/06/23 05:28:15;;;;;;;;;;;;;;;;;;5050876;28;19939;-65
2021/06/23 05:30:42;;;;;;;;;;;;;;;;;;5048412;28;19987;-64
2021/06/23 05:33:08;;;;;;;;;;;;;;;;;;5050645;28;19923;-65
2021/06/23 05:35:34;;;;;;;;;;;;;;;;;;5050652;28;20375;-65
2021/06/23 05:38:00;;;;;;;;;;;;;;;;;;5050955;28;19909;-64
2021/06/23 05:40:27;;;;;;;;;;;;;;;;;;5051282;28;19967;-65
2021/06/23 05:42:53;;;;;;;;;;;;;;;;;;5051002;28;19952;-65
2021/06/23 05:45:19;;;;;;;;;;;;;;;;;;5048226;28;19967;-65
2021/06/23 05:47:45;;;;;;;;;;;;;;;;;;5052294;28;19909;-65
2021/06/23 05:50:12;;;;;;;;;;;;;;;;;;5054832;28;19913;-64
2021/06/23 05:52:38;;;;;;;;;;;;;;;;;;5054732;28;19940;-64
2021/06/23 05:55:04;;;;;;;;;;;;;;;;;;5055043;28;19995;-65
2021/06/23 05:57:31;;;;;;;;;;;;;;;;;;5054961;28;20050;-64
2021/06/23 05:59:57;;;;;;;;;;;;;;;;;;5054720;28;19913;-65
2021/06/23 06:02:23;;;;;;;;;;;;;;;;;;5055081;28;20435;-65
2021/06/23 06:04:49;;;;;;;;;;;;;;;;;;5055006;28;20011;-64
2021/06/23 06:07:16;;;;;;;;;;;;;;;;;;5054931;28;19971;-65
2021/06/23 06:09:42;;;;;;;;;;;;;;;;;;5055163;28;19916;-64
2021/06/23 06:12:08;;;;;;;;;;;;;;;;;;5055092;28;19923;-64
2021/06/23 06:14:34;;;;;;;;;;;;;;;;;;5054444;28;19928;-65
2021/06/23 06:17:01;;;;;;;;;;;;;;;;;;5054871;28;19947;-63
2021/06/23 06:19:27;;;;;;;;;;;;;;;;;;5054581;28;19912;-64
2021/06/23 06:21:54;;;;;;;;;;;;;;;;;;5054869;28;19909;-64
2021/06/23 06:24:20;;;;;;;;;;;;;;;;;;5052065;28;19916;-64
2021/06/23 06:26:47;;;;;;;;;;;;;;;;;;5054776;28;19909;-64
2021/06/23 06:29:13;;;;;;;;;;;;;;;;;;5055604;28;20256;-64
2021/06/23 06:31:41;;;;;;;;;;;;;;;;;;5054187;28;19944;-65
2021/06/23 06:34:07;;;;;;;;;;;;;;;;;;5056628;28;19917;-64
2021/06/23 06:36:33;;;;;;;;;;;;;;;;;;5052632;28;19936;-63
2021/06/23 06:39:00;;;;;;;;;;;;;;;;;;5051482;28;19917;-64
2021/06/23 06:41:26;;;;;;;;;;;;;;;;;;5055490;28;19909;-63
2021/06/23 06:43:52;;;;;;;;;;;;;;;;;;5053202;28;19924;-64
2021/06/23 06:46:18;;;;;;;;;;;;;;;;;;5046593;28;19909;-64
2021/06/23 06:48:45;;;;;;;;;;;;;;;;;;5055661;28;19921;-64
2021/06/23 06:51:11;;;;;;;;;;;;;;;;;;5055211;28;19936;-65
2021/06/23 06:53:37;;;;;;;;;;;;;;;;;;5051495;28;20308;-64
2021/06/23 06:56:03;;;;;;;;;;;;;;;;;;5044963;28;19909;-64
2021/06/23 06:58:30;;;;;;;;;;;;;;;;;;5055220;28;19920;-63
2021/06/23 07:00:56;;;;;;;;;;;;;;;;;;5054503;28;19908;-64
2021/06/23 07:03:22;;;;;;;;;;;;;;;;;;5055471;28;19913;-65
2021/06/23 07:05:48;;;;;;;;;;;;;;;;;;5054620;28;19940;-66
2021/06/23 07:08:15;;;;;;;;;;;;;;;;;;5054115;28;20363;-66
2021/06/23 07:10:41;;;;;;;;;;;;;;;;;;5054626;28;19992;-62
2021/06/23 07:13:07;;;;;;;;;;;;;;;;;;5050328;28;19928;-66
2021/06/23 07:15:33;;;;;;;;;;;;;;;;;;5053723;28;19909;-67
2021/06/23 07:18:00;;;;;;;;;;;;;;;;;;5054541;28;19913;-62
2021/06/23 07:20:26;;;;;;;;;;;;;;;;;;5053028;28;19909;-65
2021/06/23 07:22:52;;;;;;;;;;;;;;;;;;5051639;28;19921;-63
2021/06/23 07:25:18;;;;;;;;;;;;;;;;;;5054874;28;19913;-64
2021/06/23 07:27:45;;;;;;;;;;;;;;;;;;5054580;28;19917;-62
2021/06/23 07:30:11;;;;;;;;;;;;;;;;;;5049204;28;19909;-63
2021/06/23 07:37:51;;;;;;;;;;;;;;;;;;5051009;28;19971;-62
2021/06/23 07:40:19;;;;;;;;;;;;;;;;;;5051546;28;19931;-62
2021/06/23 07:42:46;;;;;;;;;;;;;;;;;;5052610;28;19948;-62
2021/06/23 07:45:13;;;;;;;;;;;;;;;;;;5053359;28;19951;-64
2021/06/23 07:47:40;;;;;;;;;;;;;;;;;;5050126;28;20348;-64
2021/06/23 07:50:08;;;;;;;;;;;;;;;;;;5053456;28;19908;-64
2021/06/23 08:08:42;;;;;;;;;;;;;;;;;;5053120;28;19919;-61
2021/06/23 08:13:47;;;;;;;;;;;;;;;;;;5052294;28;19928;-62
2021/06/23 08:16:13;;;;;;;;;;;;;;;;;;5052019;28;19908;-62
2021/06/23 08:18:39;;;;;;;;;;;;;;;;;;5052081;28;20250;-61
2021/06/23 08:21:06;;;;;;;;;;;;;;;;;;5053790;28;19913;-61
2021/06/23 08:23:32;;;;;;;;;;;;;;;;;;5049058;28;19912;-59
2021/06/23 08:25:58;;;;;;;;;;;;;;;;;;5052954;28;19912;-61
